Time;durP1;ratioP1;P1;durP2;ratioP2;P2;SDS_P1;SDS_P2;PMS_P1;PMS_P2;Temp;Humidity;BMP_temperature;BMP_pressure;BME280_temperature;BME280_humidity;BME280_pressure;Samples;Min_cycle;Max_cycle;Signal;HPM_P1;HPM_P2
2021/08/01 00:01:23;;;;;;;;;6.00;6.00;;;;;23.47;42.46;100676.81;5058383;28;45327;-54
2021/08/01 00:03:49;;;;;;;;;6.00;4.75;;;;;23.47;42.28;100677.63;5057128;28;46011;-58
2021/08/01 00:06:14;;;;;;;;;8.75;6.00;;;;;23.46;42.37;100673.28;5058050;28;45826;-54
2021/08/01 00:08:40;;;;;;;;;5.75;4.00;;;;;23.45;42.42;100679.53;5058207;28;45928;-56
2021/08/01 00:11:05;;;;;;;;;4.00;4.00;;;;;23.45;42.55;100671.59;5058195;28;45568;-54
2021/08/01 00:13:31;;;;;;;;;4.25;4.25;;;;;23.45;42.66;100676.88;5057952;28;46168;-53
2021/08/01 00:15:58;;;;;;;;;6.00;4.00;;;;;23.45;42.59;100682.19;5057972;28;45376;-56
2021/08/01 00:18:23;;;;;;;;;5.00;4.75;;;;;23.44;42.95;100684.94;5057946;28;45315;-53
2021/08/01 00:20:49;;;;;;;;;4.50;4.50;;;;;23.44;42.52;100671.72;5057447;28;45600;-55
2021/08/01 00:23:14;;;;;;;;;6.00;4.75;;;;;23.43;42.56;100678.78;5057444;28;45345;-54
2021/08/01 00:25:39;;;;;;;;;6.00;5.50;;;;;23.43;42.53;100673.50;5057944;28;45443;-57
2021/08/01 00:28:05;;;;;;;;;5.00;5.00;;;;;23.43;42.55;100677.97;5057944;28;45518;-57
2021/08/01 00:30:30;;;;;;;;;7.50;6.00;;;;;23.43;42.49;100680.59;5058022;28;45338;-53
2021/08/01 00:32:55;;;;;;;;;8.00;4.75;;;;;23.42;42.56;100682.41;5057453;28;45392;-55
2021/08/01 00:35:21;;;;;;;;;5.25;4.25;;;;;23.41;42.75;100675.44;5057721;28;45466;-52
2021/08/01 00:37:46;;;;;;;;;7.00;5.75;;;;;23.42;42.61;100681.56;5057668;28;45418;-53
2021/08/01 00:40:12;;;;;;;;;4.50;4.50;;;;;23.41;42.67;100683.38;5057864;28;45586;-52
2021/08/01 00:42:40;;;;;;;;;5.00;5.00;;;;;23.41;42.73;100683.38;5057326;28;45466;-53
2021/08/01 00:45:07;;;;;;;;;4.00;4.00;;;;;23.40;42.74;100679.03;5057336;28;45428;-57
2021/08/01 00:47:34;;;;;;;;;4.50;4.25;;;;;23.40;42.50;100675.53;5057421;28;45427;-59
2021/08/01 00:50:05;;;;;;;;;4.75;4.75;;;;;23.41;42.62;100686.00;5057756;28;45480;-60
2021/08/01 00:52:31;;;;;;;;;5.00;3.25;;;;;23.39;42.51;100676.47;5057241;28;46085;-55
2021/08/01 00:54:56;;;;;;;;;7.00;4.75;;;;;23.41;42.69;100680.72;5057460;28;45366;-59
2021/08/01 00:57:22;;;;;;;;;5.00;5.00;;;;;23.40;42.86;100684.31;5057719;28;45371;-59
2021/08/01 00:59:47;;;;;;;;;4.25;4.25;;;;;23.40;42.80;100678.16;5057264;28;45429;-59
2021/08/01 01:02:16;;;;;;;;;4.00;4.00;;;;;23.39;42.61;100679.97;5057252;28;45455;-57
2021/08/01 01:04:49;;;;;;;;;3.50;3.25;;;;;23.38;42.63;100675.63;5056859;28;45514;-58
2021/08/01 01:07:21;;;;;;;;;6.00;6.00;;;;;23.39;42.83;100676.47;5057257;28;45437;-58
2021/08/01 01:10:02;;;;;;;;;4.25;4.25;;;;;23.38;42.77;100683.56;5057458;28;45344;-56
2021/08/01 01:12:35;;;;;;;;;7.00;4.00;;;;;23.38;42.77;100685.34;5057105;28;46089;-60
2021/08/01 01:15:10;;;;;;;;;5.00;5.00;;;;;23.37;42.71;100687.16;5056741;28;45493;-57
2021/08/01 01:17:38;;;;;;;;;4.00;4.00;;;;;23.37;42.90;100691.63;5057025;28;45348;-57
2021/08/01 01:20:32;;;;;;;;;4.50;4.25;;;;;23.36;42.56;100688.13;5057287;28;45316;-59
2021/08/01 01:23:06;;;;;;;;;5.00;5.00;;;;;23.36;42.92;100682.84;5056612;28;45632;-60
2021/08/01 01:25:54;;;;;;;;;4.75;4.75;;;;;23.37;42.73;100678.41;5056636;28;46255;-59
2021/08/01 01:29:01;;;;;;;;;5.50;5.50;;;;;23.38;42.68;100680.06;5057003;28;45392;-60
2021/08/01 01:31:29;;;;;;;;;5.00;4.00;;;;;23.37;42.71;100679.25;5029587;28;45560;-48
2021/08/01 01:34:22;;;;;;;;;6.25;4.00;;;;;23.38;42.69;100685.34;5056606;28;46345;-55
2021/08/01 01:36:49;;;;;;;;;4.50;3.75;;;;;23.38;42.71;100691.50;5056751;28;45627;-60
2021/08/01 01:39:16;;;;;;;;;4.50;4.50;;;;;23.37;42.78;100689.81;5056975;28;45521;-52
2021/08/01 01:41:44;;;;;;;;;4.75;4.00;;;;;23.38;42.53;100690.66;5056675;28;45459;-55
2021/08/01 01:44:09;;;;;;;;;5.00;4.00;;;;;23.38;42.75;100694.16;5056135;28;45531;-60
2021/08/01 01:46:36;;;;;;;;;6.00;4.00;;;;;23.37;42.62;100688.97;5056575;28;45383;-49
2021/08/01 01:49:04;;;;;;;;;4.50;4.50;;;;;23.38;43.01;100690.66;5056707;28;45794;-57
2021/08/01 01:51:30;;;;;;;;;5.00;4.00;;;;;23.39;42.64;100684.41;5056782;28;45369;-48
2021/08/01 01:53:56;;;;;;;;;4.00;4.00;;;;;23.38;42.65;100683.56;5056722;28;46191;-56
2021/08/01 01:56:21;;;;;;;;;4.00;3.00;;;;;23.37;42.74;100681.88;5056486;28;45447;-57
2021/08/01 01:58:47;;;;;;;;;3.25;3.25;;;;;23.38;42.70;100685.34;5056570;28;45347;-53
2021/08/01 02:01:12;;;;;;;;;3.75;3.75;;;;;23.37;42.95;100676.59;5056522;28;45414;-50
2021/08/01 02:03:37;;;;;;;;;3.00;3.00;;;;;23.39;42.99;100672.03;5056298;28;46088;-57
2021/08/01 02:06:03;;;;;;;;;6.00;5.25;;;;;23.38;42.92;100674.78;5056552;28;45491;-54
2021/08/01 02:08:37;;;;;;;;;4.25;4.25;;;;;23.38;42.87;100667.72;5056403;28;45837;-46
2021/08/01 02:11:07;;;;;;;;;5.00;5.00;;;;;23.37;42.69;100679.25;5056514;28;45426;-58
2021/08/01 02:13:46;;;;;;;;;5.75;3.75;;;;;23.37;42.95;100673.13;5037671;28;47719;-56
2021/08/01 02:16:11;;;;;;;;;5.00;3.00;;;;;23.36;42.59;100677.53;5056126;28;45441;-59
2021/08/01 02:18:46;;;;;;;;;3.75;3.75;;;;;23.37;42.68;100679.25;5056062;28;45412;-55
2021/08/01 02:21:12;;;;;;;;;4.00;3.00;;;;;23.37;42.95;100673.13;5056541;28;45462;-55
2021/08/01 02:23:41;;;;;;;;;4.25;4.00;;;;;23.36;42.88;100666.97;5055560;28;46299;-60
2021/08/01 02:26:10;;;;;;;;;3.50;3.50;;;;;23.36;42.84;100666.97;5054991;28;45890;-56
2021/08/01 02:28:37;;;;;;;;;2.75;2.50;;;;;23.37;42.97;100673.94;5056019;28;45455;-56
2021/08/01 02:31:03;;;;;;;;;4.00;4.00;;;;;23.38;42.81;100675.63;5056181;28;45498;-58
2021/08/01 02:33:28;;;;;;;;;4.00;2.00;;;;;23.37;42.65;100668.66;5056098;28;46134;-59
2021/08/01 02:36:00;;;;;;;;;4.25;4.25;;;;;23.37;42.53;100673.13;5055682;28;45465;-54
2021/08/01 02:38:28;;;;;;;;;5.00;4.25;;;;;23.36;42.73;100666.13;5055960;28;45391;-55
2021/08/01 02:40:57;;;;;;;;;3.50;3.50;;;;;23.36;42.45;100669.59;5056139;28;45411;-61
2021/08/01 02:43:27;;;;;;;;;5.75;3.00;;;;;23.36;42.91;100666.13;5055415;28;45349;-54
2021/08/01 02:45:53;;;;;;;;;4.75;3.00;;;;;23.36;42.66;100660.84;5055532;28;45521;-57
2021/08/01 02:48:22;;;;;;;;;3.25;3.25;;;;;23.35;42.64;100659.16;5055578;28;45407;-59
2021/08/01 02:50:56;;;;;;;;;3.75;2.75;;;;;23.35;42.72;100659.97;5056007;28;45251;-58
2021/08/01 02:53:23;;;;;;;;;4.75;4.00;;;;;23.36;42.78;100664.31;5054739;28;46185;-57
2021/08/01 02:55:51;;;;;;;;;2.00;2.00;;;;;23.35;42.57;100665.28;5055694;28;45396;-58
2021/08/01 02:58:17;;;;;;;;;5.00;4.00;;;;;23.34;42.73;100665.38;5055643;28;45421;-52
2021/08/01 03:00:47;;;;;;;;;3.75;3.75;;;;;23.34;42.82;100668.88;5055424;28;45368;-60
2021/08/01 03:03:15;;;;;;;;;4.25;4.25;;;;;23.34;42.82;100674.16;5055270;28;45238;-61
2021/08/01 03:05:42;;;;;;;;;4.25;4.00;;;;;23.34;42.63;100674.16;5055026;28;45745;-57
2021/08/01 03:08:12;;;;;;;;;5.00;3.75;;;;;23.33;42.84;100672.47;5055587;28;45350;-60
2021/08/01 03:10:48;;;;;;;;;6.00;4.00;;;;;23.33;42.99;100675.09;5038325;28;45392;-53
2021/08/01 03:13:14;;;;;;;;;3.25;3.25;;;;;23.31;43.10;100677.03;5055088;28;46288;-58
2021/08/01 03:15:39;;;;;;;;;4.00;4.00;;;;;23.31;43.45;100666.47;5055253;28;45336;-56
2021/08/01 03:18:05;;;;;;;;;3.75;3.25;;;;;23.31;43.13;100671.75;5055129;28;45395;-59
2021/08/01 03:20:31;;;;;;;;;5.50;4.25;;;;;23.32;43.12;100676.06;5056042;28;45362;-59
2021/08/01 03:22:56;;;;;;;;;3.00;3.00;;;;;23.30;42.87;100675.34;5055229;28;46021;-58
2021/08/01 03:25:21;;;;;;;;;4.25;4.25;;;;;23.30;43.12;100668.25;5037205;28;45449;-59
2021/08/01 03:27:47;;;;;;;;;2.50;2.50;;;;;23.31;43.07;100672.56;5054729;28;52678;-60
2021/08/01 03:30:12;;;;;;;;;5.25;3.75;;;;;23.31;42.93;100669.09;5055133;28;47881;-60
2021/08/01 03:32:37;;;;;;;;;5.00;4.00;;;;;23.31;42.71;100663.81;5054884;28;45414;-56
2021/08/01 03:35:03;;;;;;;;;4.25;4.00;;;;;23.31;42.95;100663.81;5055073;28;45463;-50
2021/08/01 03:37:29;;;;;;;;;5.00;5.00;;;;;23.33;43.16;100669.81;5055487;28;45505;-53
2021/08/01 03:39:55;;;;;;;;;4.75;4.75;;;;;23.32;43.21;100668.13;5058749;28;45564;-58
2021/08/01 03:42:20;;;;;;;;;3.00;3.00;;;;;23.32;43.12;100665.47;5058234;28;45984;-56
2021/08/01 03:44:46;;;;;;;;;5.00;5.00;;;;;23.33;43.00;100666.34;5058129;28;45349;-58
2021/08/01 03:47:11;;;;;;;;;4.00;3.00;;;;;23.33;42.87;100666.34;5058224;28;45310;-53
2021/08/01 03:49:36;;;;;;;;;3.25;3.25;;;;;23.33;43.11;100667.16;5058557;28;45490;-60
2021/08/01 03:52:02;;;;;;;;;5.75;2.25;;;;;23.34;42.70;100668.03;5058353;28;53263;-54
2021/08/01 03:54:27;;;;;;;;;4.00;4.00;;;;;23.33;43.04;100664.53;5058360;28;45183;-60
2021/08/01 03:56:53;;;;;;;;;3.00;3.00;;;;;23.33;42.78;100671.63;5058177;28;45183;-54
2021/08/01 03:59:18;;;;;;;;;3.00;3.00;;;;;23.33;42.68;100667.16;5058710;28;45190;-45
2021/08/01 04:01:44;;;;;;;;;3.25;3.25;;;;;23.32;43.05;100665.47;5057496;28;52026;-57
2021/08/01 04:04:09;;;;;;;;;6.00;4.00;;;;;23.33;42.78;100661.06;5040116;28;45388;-60
2021/08/01 04:06:35;;;;;;;;;3.25;3.00;;;;;23.33;42.88;100656.59;5058277;28;45329;-58
2021/08/01 04:09:04;;;;;;;;;3.00;3.00;;;;;23.34;43.06;100660.09;5058483;28;45583;-57
2021/08/01 04:11:30;;;;;;;;;4.25;4.25;;;;;23.34;42.90;100663.56;5058212;28;45925;-57
2021/08/01 04:13:55;;;;;;;;;4.00;4.00;;;;;23.33;42.83;100659.25;5057864;28;45374;-61
2021/08/01 04:16:20;;;;;;;;;3.50;3.50;;;;;23.33;42.74;100653.94;5057874;28;45381;-59
2021/08/01 04:18:46;;;;;;;;;5.00;2.50;;;;;23.33;42.87;100653.94;5058134;28;45540;-58
2021/08/01 04:21:12;;;;;;;;;3.25;3.00;;;;;23.33;42.73;100663.69;5057729;28;46264;-59
2021/08/01 04:23:39;;;;;;;;;2.00;2.00;;;;;23.32;42.82;100654.91;5057875;28;45767;-59
2021/08/01 04:26:06;;;;;;;;;2.75;2.75;;;;;23.31;42.78;100655.88;5058116;28;45376;-58
2021/08/01 04:28:32;;;;;;;;;4.00;4.00;;;;;23.31;43.08;100663.81;5058166;28;45411;-57
2021/08/01 04:30:57;;;;;;;;;6.00;3.75;;;;;23.31;43.05;100662.00;5057253;28;45584;-56
2021/08/01 04:33:23;;;;;;;;;3.00;3.00;;;;;23.31;43.23;100669.09;5057490;28;45475;-60
2021/08/01 04:35:48;;;;;;;;;6.00;4.00;;;;;23.30;43.14;100662.13;5039642;28;45328;-59
2021/08/01 04:38:14;;;;;;;;;3.50;3.50;;;;;23.30;43.07;100662.13;5057881;28;45423;-60
2021/08/01 04:40:39;;;;;;;;;4.50;4.50;;;;;23.29;43.37;100661.25;5057323;28;46125;-59
2021/08/01 04:43:04;;;;;;;;;5.00;4.00;;;;;23.29;43.33;100660.44;5057832;28;45379;-56
2021/08/01 04:45:30;;;;;;;;;5.50;4.00;;;;;23.28;43.31;100659.56;5057281;28;45273;-56
2021/08/01 04:47:55;;;;;;;;;2.75;1.75;;;;;23.28;43.30;100658.72;5039690;28;45397;-57
2021/08/01 04:50:21;;;;;;;;;6.00;4.25;;;;;23.27;43.14;100659.69;5056768;28;45378;-60
2021/08/01 04:52:49;;;;;;;;;5.00;4.75;;;;;23.27;43.34;100657.03;5057207;28;45616;-58
2021/08/01 04:55:15;;;;;;;;;3.75;3.75;;;;;23.25;43.14;100665.09;5057677;28;45753;-55
2021/08/01 04:57:40;;;;;;;;;2.00;2.00;;;;;23.26;43.01;100665.91;5039361;28;45444;-60
2021/08/01 05:00:07;;;;;;;;;6.00;3.50;;;;;23.24;43.10;100667.81;5057313;28;45320;-60
2021/08/01 05:02:32;;;;;;;;;4.00;3.00;;;;;23.24;43.35;100662.53;5039383;28;45749;-59
2021/08/01 05:05:01;;;;;;;;;4.00;3.75;;;;;23.24;43.10;100662.53;5057307;28;45387;-57
2021/08/01 05:07:26;;;;;;;;;3.25;3.25;;;;;23.24;42.94;100662.53;5057462;28;45374;-48
2021/08/01 05:09:52;;;;;;;;;6.00;3.25;;;;;23.22;43.15;100653.84;5056715;28;49055;-50
2021/08/01 05:12:17;;;;;;;;;4.50;4.00;;;;;23.23;42.99;100663.47;5056727;28;53607;-57
2021/08/01 05:14:43;;;;;;;;;2.75;2.00;;;;;23.22;43.28;100661.78;5057101;28;45328;-57
2021/08/01 05:17:08;;;;;;;;;3.75;3.50;;;;;23.20;43.18;100659.25;5057453;28;45222;-52
2021/08/01 05:19:40;;;;;;;;;4.00;2.75;;;;;23.20;43.21;100666.34;5057055;28;46154;-56
2021/08/01 05:22:10;;;;;;;;;3.00;3.00;;;;;23.21;43.18;100665.38;5057340;28;45829;-49
2021/08/01 05:24:36;;;;;;;;;3.25;3.25;;;;;23.20;43.19;100666.34;5057072;28;45544;-54
2021/08/01 05:27:02;;;;;;;;;3.00;2.75;;;;;23.19;43.14;100678.72;5056934;28;45566;-50
2021/08/01 05:29:28;;;;;;;;;3.50;3.50;;;;;23.17;43.34;100672.66;5056748;28;45463;-53
2021/08/01 05:31:54;;;;;;;;;4.00;4.00;;;;;23.17;43.21;100668.22;5056842;28;45388;-50
2021/08/01 05:34:20;;;;;;;;;3.25;3.25;;;;;23.17;43.44;100673.50;5056953;28;45416;-54
2021/08/01 05:36:46;;;;;;;;;5.00;3.00;;;;;23.16;43.63;100671.81;5038950;28;45347;-53
2021/08/01 05:39:12;;;;;;;;;3.50;2.00;;;;;23.16;43.23;100673.59;5056529;28;45319;-56
2021/08/01 05:41:37;;;;;;;;;4.25;4.25;;;;;23.15;43.48;100670.13;5056955;28;45391;-53
2021/08/01 05:44:03;;;;;;;;;2.50;2.00;;;;;23.14;43.33;100667.59;5056629;28;45258;-50
2021/08/01 05:46:28;;;;;;;;;2.75;2.75;;;;;23.14;43.36;100673.72;5056916;28;45302;-53
2021/08/01 05:48:53;;;;;;;;;6.00;3.00;;;;;23.13;43.54;100665.91;5056394;28;46101;-55
2021/08/01 05:51:20;;;;;;;;;2.25;2.25;;;;;23.13;43.49;100677.31;5056371;28;45368;-59
2021/08/01 05:53:46;;;;;;;;;4.00;2.00;;;;;23.13;43.55;100676.47;5056626;28;45611;-59
2021/08/01 05:56:12;;;;;;;;;4.25;2.25;;;;;23.12;43.43;100672.97;5056442;28;45597;-52
2021/08/01 05:58:39;;;;;;;;;2.00;2.00;;;;;23.13;43.86;100676.47;5056376;28;46266;-53
2021/08/01 06:01:15;;;;;;;;;2.00;2.00;;;;;23.12;43.57;100680.91;5055579;28;45463;-51
2021/08/01 06:03:42;;;;;;;;;3.00;2.00;;;;;23.12;43.73;100680.91;5056039;28;45404;-58
2021/08/01 06:06:12;;;;;;;;;4.00;2.00;;;;;23.12;43.46;100683.53;5056902;28;45498;-54
2021/08/01 06:08:38;;;;;;;;;2.75;2.00;;;;;23.11;43.66;100676.56;5056281;28;46479;-55
2021/08/01 06:11:04;;;;;;;;;4.25;1.75;;;;;23.11;43.88;100679.22;5056010;28;45794;-50
2021/08/01 06:13:30;;;;;;;;;3.00;2.25;;;;;23.11;43.71;100673.91;5056429;28;45442;-55
2021/08/01 06:15:56;;;;;;;;;2.50;2.50;;;;;23.11;43.67;100681.84;5056390;28;45376;-58
2021/08/01 06:18:21;;;;;;;;;3.25;3.00;;;;;23.10;44.06;100684.63;5056134;28;46274;-56
2021/08/01 06:20:46;;;;;;;;;3.75;3.25;;;;;23.11;43.88;100694.25;5056133;28;45206;-51
2021/08/01 06:23:11;;;;;;;;;2.00;2.00;;;;;23.11;44.01;100688.94;5056271;28;45373;-51
2021/08/01 06:25:38;;;;;;;;;3.00;3.00;;;;;23.10;43.89;100696.03;5038009;28;45352;-52
2021/08/01 06:28:04;;;;;;;;;3.75;3.75;;;;;23.10;44.09;100703.94;5055747;28;46399;-56
2021/08/01 06:30:30;;;;;;;;;3.00;3.00;;;;;23.11;43.94;100694.25;5056051;28;45372;-60
2021/08/01 06:32:55;;;;;;;;;3.00;3.00;;;;;23.11;43.88;100695.06;5056135;28;45381;-58
2021/08/01 06:35:20;;;;;;;;;3.25;3.25;;;;;23.10;43.88;100701.31;5056110;28;45328;-51
2021/08/01 06:37:45;;;;;;;;;2.75;2.75;;;;;23.11;43.86;100694.25;5055839;28;45776;-56
2021/08/01 06:40:11;;;;;;;;;1.75;1.75;;;;;23.10;43.97;100701.31;5055940;28;45455;-53
2021/08/01 06:42:36;;;;;;;;;2.00;2.00;;;;;23.11;43.86;100700.34;5056490;28;45865;-60
2021/08/01 06:45:02;;;;;;;;;3.50;2.00;;;;;23.12;43.90;100701.22;5056127;28;45942;-60
2021/08/01 06:47:28;;;;;;;;;4.50;3.75;;;;;23.12;44.05;100709.16;5055756;28;46199;-56
2021/08/01 06:49:53;;;;;;;;;4.00;2.25;;;;;23.12;44.13;100704.69;5055553;28;47463;-60
2021/08/01 06:52:18;;;;;;;;;4.00;2.00;;;;;23.12;44.25;100696.75;5055530;28;45410;-53
2021/08/01 06:54:44;;;;;;;;;3.00;2.00;;;;;23.13;44.00;100698.47;5055748;28;45610;-56
2021/08/01 06:57:09;;;;;;;;;2.75;2.75;;;;;23.16;44.09;100697.41;5055787;28;46592;-55
2021/08/01 06:59:34;;;;;;;;;4.00;2.00;;;;;23.19;43.86;100704.28;5055477;28;45468;-56
2021/08/01 07:02:00;;;;;;;;;4.50;4.00;;;;;23.17;43.76;100710.53;5055589;28;45833;-58
2021/08/01 07:04:25;;;;;;;;;1.25;1.25;;;;;23.15;43.96;100707.13;5055476;28;45719;-56
2021/08/01 07:06:50;;;;;;;;;5.00;1.00;;;;;23.14;44.04;100705.44;5055178;28;46013;-58
2021/08/01 07:09:16;;;;;;;;;1.00;1.00;;;;;23.13;43.99;100702.91;5055409;28;45323;-58
2021/08/01 07:11:41;;;;;;;;;4.00;4.00;;;;;23.13;43.93;100708.19;5056442;28;45384;-57
2021/08/01 07:14:06;;;;;;;;;2.00;1.00;;;;;23.12;43.99;100702.06;5059243;28;45355;-57
2021/08/01 07:16:32;;;;;;;;;5.25;3.00;;;;;23.09;43.48;100712.84;5058620;28;46070;-54
2021/08/01 07:18:57;;;;;;;;;3.25;1.25;;;;;23.11;44.00;100718.88;5058723;28;45361;-59
2021/08/01 07:21:22;;;;;;;;;2.00;2.00;;;;;23.11;43.67;100710.09;5058910;28;45261;-59
2021/08/01 07:23:47;;;;;;;;;5.00;2.00;;;;;23.11;43.94;100720.69;5058824;28;45280;-59
2021/08/01 07:26:13;;;;;;;;;1.00;1.00;;;;;23.10;43.75;100724.25;5059167;28;45214;-59
2021/08/01 07:28:38;;;;;;;;;2.00;2.00;;;;;23.08;44.01;100721.75;5058771;28;45335;-56
2021/08/01 07:31:03;;;;;;;;;2.00;2.00;;;;;23.05;43.74;100726.38;5040838;28;45383;-60
2021/08/01 07:33:29;;;;;;;;;2.25;2.25;;;;;23.03;43.88;100737.06;5059113;28;45237;-57
2021/08/01 07:35:57;;;;;;;;;3.00;2.25;;;;;23.01;43.81;100744.22;5058467;28;45380;-57
2021/08/01 07:38:24;;;;;;;;;4.00;2.25;;;;;22.99;43.90;100744.34;5058340;28;45777;-60
2021/08/01 07:40:49;;;;;;;;;2.25;2.25;;;;;22.99;44.00;100738.19;5058630;28;45455;-58
2021/08/01 07:43:15;;;;;;;;;2.00;2.00;;;;;22.99;43.64;100738.19;5058809;28;45494;-53
2021/08/01 07:45:40;;;;;;;;;1.50;1.00;;;;;23.02;43.86;100738.00;5058706;28;46282;-58
2021/08/01 07:48:05;;;;;;;;;3.00;2.00;;;;;23.03;43.79;100742.34;5058478;28;45370;-56
2021/08/01 07:50:31;;;;;;;;;2.00;2.00;;;;;23.04;43.78;100740.56;5058769;28;45362;-58
2021/08/01 07:52:56;;;;;;;;;2.75;2.75;;;;;23.05;43.93;100740.44;5040285;28;45591;-59
2021/08/01 07:55:22;;;;;;;;;3.00;2.00;;;;;23.06;43.86;100749.19;5058230;28;45371;-56
2021/08/01 07:57:49;;;;;;;;;2.00;2.00;;;;;23.06;43.75;100750.06;5058508;28;45245;-57
2021/08/01 08:00:15;;;;;;;;;3.25;2.00;;;;;23.07;43.72;100750.91;5058681;28;45256;-57
2021/08/01 08:02:41;;;;;;;;;3.00;3.00;;;;;23.06;43.70;100744.78;5058621;28;45250;-58
2021/08/01 08:05:07;;;;;;;;;2.00;2.00;;;;;23.05;44.00;100744.88;5039767;28;46383;-56
2021/08/01 08:07:32;;;;;;;;;2.00;1.00;;;;;23.03;43.80;100744.97;5057813;28;45669;-57
2021/08/01 08:09:58;;;;;;;;;3.00;2.00;;;;;23.00;43.66;100743.41;5058075;28;45339;-59
2021/08/01 08:12:23;;;;;;;;;2.00;2.00;;;;;23.01;43.87;100746.88;5040279;28;45340;-53
2021/08/01 08:14:49;;;;;;;;;2.25;2.00;;;;;23.00;43.69;100748.69;5057995;28;46144;-54
2021/08/01 08:17:14;;;;;;;;;4.25;2.00;;;;;23.01;43.49;100752.16;5058111;28;45477;-58
2021/08/01 08:19:40;;;;;;;;;2.75;2.00;;;;;23.02;43.15;100756.50;5057810;28;45725;-56
2021/08/01 08:22:09;;;;;;;;;1.75;1.75;;;;;23.03;43.36;100755.56;5057940;28;45577;-60
2021/08/01 08:24:35;;;;;;;;;2.50;1.25;;;;;23.01;42.81;100753.03;5056871;28;46224;-59
2021/08/01 08:27:01;;;;;;;;;2.00;0.75;;;;;23.00;42.71;100755.75;5057795;28;45413;-56
2021/08/01 08:29:26;;;;;;;;;2.25;1.00;;;;;22.98;42.40;100752.38;5057848;28;45383;-53
2021/08/01 08:31:53;;;;;;;;;2.25;2.00;;;;;22.95;42.67;100763.16;5058058;28;45269;-58
2021/08/01 08:34:20;;;;;;;;;2.00;2.00;;;;;22.97;42.66;100767.38;5057484;28;46537;-55
2021/08/01 08:36:50;;;;;;;;;0.50;0.50;;;;;22.97;42.63;100755.97;5039639;28;46113;-56
2021/08/01 08:39:20;;;;;;;;;2.00;2.00;;;;;23.00;42.52;100763.69;5058116;28;45422;-54
2021/08/01 08:41:46;;;;;;;;;2.00;1.00;;;;;23.04;42.34;100762.53;5040133;28;45364;-53
2021/08/01 08:44:11;;;;;;;;;2.50;1.75;;;;;23.07;42.32;100757.06;5057291;28;45312;-56
2021/08/01 08:46:38;;;;;;;;;1.00;1.00;;;;;23.09;42.41;100760.44;5057404;28;45366;-59
2021/08/01 08:49:11;;;;;;;;;2.50;2.50;;;;;23.11;42.39;100758.53;5057503;28;45655;-57
2021/08/01 08:51:39;;;;;;;;;1.25;1.25;;;;;23.12;42.10;100757.56;5057652;28;45372;-56
2021/08/01 08:54:10;;;;;;;;;2.00;2.00;;;;;23.13;42.25;100761.06;5057348;28;46348;-54
2021/08/01 08:56:37;;;;;;;;;2.00;2.00;;;;;23.14;42.29;100760.97;5057365;28;45229;-54
2021/08/01 08:59:03;;;;;;;;;2.00;2.00;;;;;23.16;42.16;100768.78;5056462;28;45448;-59
2021/08/01 09:01:29;;;;;;;;;2.25;2.25;;;;;23.17;42.20;100758.13;5057520;28;45565;-59
2021/08/01 09:03:54;;;;;;;;;1.50;1.50;;;;;23.18;42.36;100758.94;5057063;28;45636;-52
2021/08/01 09:06:20;;;;;;;;;3.00;2.00;;;;;23.21;42.71;100760.56;5057285;28;45381;-56
2021/08/01 09:08:45;;;;;;;;;2.00;2.00;;;;;23.19;42.58;100763.31;5057736;28;45648;-59
2021/08/01 09:11:11;;;;;;;;;2.00;2.00;;;;;23.22;42.52;100767.53;5057430;28;45565;-58
2021/08/01 09:13:51;;;;;;;;;1.75;1.75;;;;;23.23;42.57;100777.19;5039071;28;46013;-59
2021/08/01 09:16:18;;;;;;;;;2.75;1.00;;;;;23.24;42.47;100769.16;5039134;28;45626;-58
2021/08/01 09:18:44;;;;;;;;;1.25;1.25;;;;;23.25;42.43;100767.34;5057118;28;45301;-55
2021/08/01 09:21:31;;;;;;;;;2.00;2.00;;;;;23.26;42.26;100772.53;5057288;28;45375;-59
2021/08/01 09:23:56;;;;;;;;;2.00;2.00;;;;;23.27;42.09;100776.03;5056658;28;47078;-60
2021/08/01 09:26:21;;;;;;;;;2.75;1.50;;;;;23.28;42.44;100762.69;5056853;28;45407;-58
2021/08/01 09:29:04;;;;;;;;;5.00;3.00;;;;;23.30;42.22;100765.25;5057020;28;45334;-59
2021/08/01 09:31:29;;;;;;;;;2.75;2.75;;;;;23.33;42.53;100761.53;5038846;28;45493;-59
2021/08/01 09:33:55;;;;;;;;;4.00;3.00;;;;;23.33;41.97;100761.53;5056823;28;45624;-59
2021/08/01 09:36:23;;;;;;;;;2.75;2.25;;;;;23.34;42.03;100765.88;5057141;28;45217;-57
2021/08/01 09:38:51;;;;;;;;;1.50;1.50;;;;;23.34;42.22;100769.34;5057177;28;45423;-58
2021/08/01 09:41:25;;;;;;;;;3.25;2.00;;;;;23.35;41.85;100764.94;5039268;28;45367;-59
2021/08/01 09:43:51;;;;;;;;;3.00;2.00;;;;;23.36;42.04;100766.63;5056723;28;45563;-59
2021/08/01 09:46:17;;;;;;;;;4.00;2.00;;;;;23.37;42.16;100763.88;5056975;28;45727;-59
2021/08/01 09:48:43;;;;;;;;;1.00;1.00;;;;;23.37;41.76;100760.38;5056859;28;45370;-59
2021/08/01 09:51:10;;;;;;;;;4.00;2.75;;;;;23.37;42.13;100761.22;5038708;28;45232;-58
2021/08/01 09:53:39;;;;;;;;;1.50;1.50;;;;;23.36;41.98;100762.16;5056515;28;47308;-58
2021/08/01 09:56:18;;;;;;;;;3.00;2.00;;;;;23.36;42.12;100762.16;5056016;28;45404;-56
2021/08/01 09:58:45;;;;;;;;;2.00;2.00;;;;;23.35;41.85;100760.47;5056725;28;45190;-57
2021/08/01 10:01:11;;;;;;;;;3.00;3.00;;;;;23.37;41.81;100757.75;5056639;28;45528;-58
2021/08/01 10:03:38;;;;;;;;;3.25;2.25;;;;;23.37;41.92;100757.75;5038155;28;47479;-58
2021/08/01 10:06:16;;;;;;;;;2.25;2.25;;;;;23.38;41.80;100759.41;5056135;28;45682;-59
2021/08/01 10:08:46;;;;;;;;;3.00;1.50;;;;;23.38;41.75;100754.97;5055671;28;45391;-59
2021/08/01 10:11:19;;;;;;;;;1.00;1.00;;;;;23.39;41.74;100751.38;5056431;28;45259;-59
2021/08/01 10:13:47;;;;;;;;;3.00;2.00;;;;;23.38;41.64;100747.03;5056264;28;45382;-58
2021/08/01 10:16:13;;;;;;;;;4.00;3.00;;;;;23.38;41.64;100741.75;5056360;28;45816;-60
2021/08/01 10:18:42;;;;;;;;;3.25;2.00;;;;;23.38;41.35;100743.53;5056288;28;45403;-55
2021/08/01 10:21:08;;;;;;;;;2.00;2.00;;;;;23.36;41.27;100743.66;5056461;28;45347;-57
2021/08/01 10:23:43;;;;;;;;;2.50;1.75;;;;;23.36;41.44;100745.47;5056054;28;45936;-60
2021/08/01 10:26:09;;;;;;;;;4.25;2.25;;;;;23.36;41.36;100750.75;5056073;28;45770;-59
2021/08/01 10:28:40;;;;;;;;;1.00;1.00;;;;;23.35;41.18;100743.78;5056057;28;45214;-55
2021/08/01 10:31:10;;;;;;;;;2.00;2.00;;;;;23.35;40.90;100741.97;5056293;28;45469;-51
2021/08/01 10:33:44;;;;;;;;;1.00;1.00;;;;;23.35;40.91;100744.59;5055119;28;46408;-46
2021/08/01 10:36:11;;;;;;;;;1.25;1.00;;;;;23.35;40.65;100747.25;5056132;28;45640;-58
2021/08/01 10:38:38;;;;;;;;;2.25;1.50;;;;;23.36;40.84;100746.31;5056150;28;45439;-57
2021/08/01 10:41:06;;;;;;;;;1.00;1.00;;;;;23.37;40.56;100741.88;5055955;28;45676;-58
2021/08/01 10:43:36;;;;;;;;;2.00;2.00;;;;;23.38;40.39;100739.13;5055567;28;46324;-59
2021/08/01 10:46:02;;;;;;;;;2.50;2.00;;;;;23.39;40.76;100734.66;5054657;28;45940;-58
2021/08/01 10:48:29;;;;;;;;;3.00;2.75;;;;;23.39;40.31;100732.88;5040981;28;45558;-59
2021/08/01 10:50:57;;;;;;;;;1.00;1.00;;;;;23.39;40.57;100737.31;5059635;28;45518;-57
2021/08/01 10:53:24;;;;;;;;;2.00;2.00;;;;;23.39;40.80;100735.53;5059615;28;47121;-54
2021/08/01 10:56:10;;;;;;;;;0.00;0.00;;;;;23.41;40.29;100738.06;5041518;28;45423;-47
2021/08/01 10:58:37;;;;;;;;;1.75;1.00;;;;;23.43;40.74;100736.97;5058674;28;45449;-54
2021/08/01 11:01:03;;;;;;;;;1.00;1.00;;;;;23.43;40.40;100729.03;5059535;28;45540;-55
2021/08/01 11:03:30;;;;;;;;;1.00;1.00;;;;;23.44;40.46;100732.56;5059202;28;46518;-57
2021/08/01 11:05:57;;;;;;;;;0.25;0.25;;;;;23.47;40.35;100727.06;5059106;28;45663;-56
2021/08/01 11:08:23;;;;;;;;;1.00;1.00;;;;;23.47;40.40;100725.25;5059521;28;45459;-58
2021/08/01 11:11:11;;;;;;;;;2.00;1.75;;;;;23.51;40.17;100722.41;5059452;28;45573;-58
2021/08/01 11:13:38;;;;;;;;;0.75;0.75;;;;;23.50;40.26;100716.25;5059199;28;45379;-59
2021/08/01 11:16:06;;;;;;;;;0.50;0.50;;;;;23.50;40.46;100723.34;5058995;28;45278;-58
2021/08/01 11:18:49;;;;;;;;;1.00;1.00;;;;;23.49;40.02;100722.47;5058977;28;45182;-57
2021/08/01 11:21:38;;;;;;;;;1.00;1.00;;;;;23.48;40.08;100712.88;5058983;28;45458;-51
2021/08/01 11:24:05;;;;;;;;;2.00;2.00;;;;;23.47;39.99;100717.31;5058716;28;46367;-59
2021/08/01 11:26:30;;;;;;;;;1.00;1.00;;;;;23.47;39.60;100709.38;5058884;28;45728;-60